Time;durP1;ratioP1;P1;durP2;ratioP2;P2;SDS_P1;SDS_P2;PMS_P1;PMS_P2;Temp;Humidity;BMP_temperature;BMP_pressure;BME280_temperature;BME280_humidity;BME280_pressure;Samples;Min_cycle;Max_cycle;Signal;HPM_P1;HPM_P2
2021/03/01 00:00:06;;;;;;;14.50;8.17;;;;;;;4.04;72.82;97563.88;5081251;28;20449;-92
2021/03/01 00:02:32;;;;;;;12.30;7.93;;;;;;;4.06;72.88;97566.84;5079173;28;20465;-88
2021/03/01 00:04:58;;;;;;;14.30;9.00;;;;;;;4.06;72.89;97569.50;5078810;28;20985;-87
2021/03/01 00:07:24;;;;;;;16.60;8.83;;;;;;;4.03;72.79;97575.78;5078567;28;20464;-85
2021/03/01 00:09:51;;;;;;;14.73;8.80;;;;;;;4.11;72.72;97574.16;5077962;28;20433;-85
2021/03/01 00:12:17;;;;;;;13.83;8.40;;;;;;;4.09;72.62;97576.59;5089740;28;20640;-85
2021/03/01 00:14:43;;;;;;;14.37;9.70;;;;;;;4.01;72.80;97578.16;5099642;28;20533;-85
2021/03/01 00:17:11;;;;;;;11.50;8.33;;;;;;;3.97;72.70;97566.97;5099292;28;20433;-85
2021/03/01 00:19:37;;;;;;;11.20;7.40;;;;;;;3.93;72.91;97569.09;5089001;28;20501;-85
2021/03/01 00:22:03;;;;;;;13.80;8.20;;;;;;;3.86;72.90;97569.47;5078252;28;20462;-85
2021/03/01 00:24:29;;;;;;;12.73;7.70;;;;;;;3.94;72.64;97572.50;5078536;28;20461;-85
2021/03/01 00:26:56;;;;;;;13.90;9.07;;;;;;;3.89;72.76;97570.47;5078285;28;20428;-85
2021/03/01 00:29:22;;;;;;;12.40;7.13;;;;;;;3.90;72.57;97574.63;5079253;28;20508;-85
2021/03/01 00:31:48;;;;;;;11.93;7.83;;;;;;;3.93;72.15;97573.69;5079872;28;20928;-84
2021/03/01 00:34:14;;;;;;;13.20;9.07;;;;;;;3.93;72.33;97573.69;5079195;28;20416;-86
2021/03/01 00:36:40;;;;;;;13.23;7.57;;;;;;;3.98;72.19;97575.72;5078438;28;20896;-87
2021/03/01 00:39:06;;;;;;;13.17;8.80;;;;;;;3.94;72.63;97572.50;5077671;28;20429;-87
2021/03/01 00:41:32;;;;;;;13.40;7.53;;;;;;;3.91;72.39;97574.16;5078023;28;20453;-87
2021/03/01 00:44:00;;;;;;;14.43;8.03;;;;;;;3.83;72.91;97569.66;5078606;28;20481;-87
2021/03/01 00:46:26;;;;;;;14.33;8.90;;;;;;;3.83;72.87;97575.72;5077394;28;20953;-87
2021/03/01 00:48:52;;;;;;;12.03;7.80;;;;;;;3.79;73.06;97577.84;5076903;28;20434;-86
2021/03/01 00:51:18;;;;;;;19.90;8.53;;;;;;;3.74;73.24;97579.25;5077989;28;20442;-85
2021/03/01 00:53:44;;;;;;;14.60;8.20;;;;;;;3.68;73.43;97577.72;5077585;28;20479;-85
2021/03/01 00:56:10;;;;;;;12.97;7.73;;;;;;;3.64;73.73;97575.22;5077132;28;20766;-86
2021/03/01 00:58:37;;;;;;;18.83;9.20;;;;;;;3.61;74.36;97576.16;5076901;28;20442;-86
2021/03/01 01:01:04;;;;;;;13.50;8.60;;;;;;;3.65;74.22;97565.28;5090380;28;20505;-87
2021/03/01 01:03:30;;;;;;;17.23;9.23;;;;;;;3.60;74.58;97569.34;5094343;28;20472;-86
2021/03/01 01:05:56;;;;;;;15.40;8.30;;;;;;;3.58;74.97;97565.66;5094478;28;20489;-86
2021/03/01 01:08:23;;;;;;;13.53;8.13;;;;;;;3.56;74.91;97565.41;5092491;28;20437;-87
2021/03/01 01:10:50;;;;;;;12.83;8.40;;;;;;;3.56;74.73;97566.16;5079573;28;20901;-87
2021/03/01 01:13:16;;;;;;;15.17;9.70;;;;;;;3.51;75.39;97566.06;5078307;28;20465;-87
2021/03/01 01:15:42;;;;;;;13.67;8.27;;;;;;;3.47;75.03;97563.59;5077617;28;20689;-87
2021/03/01 01:18:10;;;;;;;16.83;8.53;;;;;;;3.44;75.34;97564.50;5077673;28;20448;-87
2021/03/01 01:20:36;;;;;;;13.43;7.80;;;;;;;3.31;74.87;97561.41;5077929;28;20438;-87
2021/03/01 01:23:02;;;;;;;15.33;8.90;;;;;;;3.17;75.66;97556.78;5076738;28;20522;-87
2021/03/01 01:25:28;;;;;;;17.20;10.20;;;;;;;3.01;76.56;97558.00;5077025;28;20812;-86
2021/03/01 01:27:54;;;;;;;13.50;10.00;;;;;;;2.86;77.42;97557.25;5076885;28;20447;-86
2021/03/01 01:30:22;;;;;;;16.10;9.23;;;;;;;2.81;77.45;97557.16;5077487;28;20497;-84
2021/03/01 01:32:50;;;;;;;14.70;8.97;;;;;;;2.77;78.13;97548.59;5077199;28;20465;-85
2021/03/01 01:35:18;;;;;;;16.70;8.97;;;;;;;2.71;78.26;97553.84;5076766;28;20514;-85
2021/03/01 01:37:45;;;;;;;18.40;9.67;;;;;;;2.66;78.30;97557.16;5076974;28;20472;-86
2021/03/01 01:40:13;;;;;;;16.20;8.27;;;;;;;2.63;79.09;97552.75;5077373;28;20532;-87
2021/03/01 01:42:40;;;;;;;16.20;8.60;;;;;;;2.66;78.95;97554.50;5076641;28;20465;-87
2021/03/01 01:45:08;;;;;;;15.70;8.87;;;;;;;2.69;78.40;97548.97;5076646;28;20481;-86
2021/03/01 01:47:34;;;;;;;15.57;8.33;;;;;;;2.78;78.20;97550.81;5076892;28;20872;-87
2021/03/01 01:50:00;;;;;;;15.00;8.30;;;;;;;2.78;78.64;97550.81;5077602;28;20868;-85
2021/03/01 01:52:27;;;;;;;20.80;9.50;;;;;;;2.89;78.21;97559.00;5077692;28;20513;-85
2021/03/01 01:54:53;;;;;;;15.07;8.70;;;;;;;3.01;77.54;97551.91;5077262;28;20434;-85
2021/03/01 01:57:20;;;;;;;13.50;9.17;;;;;;;3.01;77.63;97542.00;5076520;28;20444;-85
2021/03/01 01:59:46;;;;;;;18.23;9.50;;;;;;;3.02;77.41;97553.41;5076588;28;20519;-85
2021/03/01 02:02:13;;;;;;;15.90;8.30;;;;;;;3.04;77.71;97545.66;5076186;28;20842;-86
2021/03/01 02:04:43;;;;;;;12.13;8.37;;;;;;;3.11;77.45;97547.97;5075798;28;20520;-85
2021/03/01 02:07:14;;;;;;;13.60;9.30;;;;;;;3.10;77.28;97544.56;5075745;28;20434;-84
2021/03/01 02:10:00;;;;;;;15.60;9.90;;;;;;;2.90;78.30;97541.81;5076652;28;20444;-83
2021/03/01 02:12:40;;;;;;;18.30;9.97;;;;;;;2.88;77.98;97538.16;5076256;28;20461;-84
2021/03/01 02:15:09;;;;;;;13.20;8.70;;;;;;;2.85;78.49;97537.13;5076583;28;20906;-84
2021/03/01 02:17:36;;;;;;;16.40;10.67;;;;;;;2.85;78.68;97534.44;5075862;28;20442;-85
2021/03/01 02:20:05;;;;;;;19.93;10.10;;;;;;;2.87;78.57;97529.41;5075828;28;20404;-86
2021/03/01 02:22:32;;;;;;;14.20;8.33;;;;;;;2.87;78.67;97526.00;5076243;28;20469;-86
2021/03/01 02:25:03;;;;;;;16.23;9.10;;;;;;;2.86;78.60;97527.94;5076071;28;20459;-86
2021/03/01 02:27:31;;;;;;;23.50;10.70;;;;;;;2.89;78.07;97527.03;5075732;28;20407;-86
2021/03/01 02:30:03;;;;;;;18.30;9.23;;;;;;;2.90;77.84;97536.50;5076225;28;20536;-86
2021/03/01 02:32:33;;;;;;;11.13;8.00;;;;;;;2.92;78.17;97526.09;5076306;28;20461;-84
2021/03/01 02:35:00;;;;;;;15.37;8.80;;;;;;;2.89;78.45;97527.03;5075975;28;20485;-84
2021/03/01 02:37:28;;;;;;;14.30;9.00;;;;;;;2.87;78.50;97526.75;5075588;28;20460;-84
2021/03/01 02:39:56;;;;;;;15.83;9.37;;;;;;;2.83;78.42;97525.44;5076346;28;20443;-84
2021/03/01 02:42:28;;;;;;;14.20;9.20;;;;;;;2.82;78.36;97524.72;5076797;28;20505;-84
2021/03/01 02:44:55;;;;;;;16.63;9.13;;;;;;;2.78;78.78;97526.84;5076113;28;20549;-84
2021/03/01 02:47:23;;;;;;;19.37;10.30;;;;;;;2.77;78.76;97525.38;5075570;28;20433;-86
2021/03/01 02:49:52;;;;;;;17.10;11.50;;;;;;;2.81;78.49;97515.28;5076450;28;20849;-86
2021/03/01 02:52:20;;;;;;;21.37;11.07;;;;;;;2.79;79.32;97511.59;5075486;28;20581;-87
2021/03/01 02:54:48;;;;;;;18.40;9.87;;;;;;;2.79;78.87;97524.91;5076313;28;20450;-87
2021/03/01 02:57:17;;;;;;;14.40;9.20;;;;;;;2.77;78.85;97520.03;5075809;28;20521;-86
2021/03/01 02:59:43;;;;;;;16.50;9.67;;;;;;;2.72;79.47;97516.06;5075611;28;20944;-85
2021/03/01 03:02:10;;;;;;;15.90;10.13;;;;;;;2.71;79.22;97513.88;5075379;28;20465;-84
2021/03/01 03:04:39;;;;;;;16.47;9.17;;;;;;;2.72;79.28;97519.94;5076877;28;20477;-84
2021/03/01 03:07:06;;;;;;;14.33;9.63;;;;;;;2.64;79.11;97511.56;5078826;28;20510;-84
2021/03/01 03:09:33;;;;;;;18.13;10.13;;;;;;;2.60;79.75;97511.75;5079598;28;20504;-86
2021/03/01 03:12:02;;;;;;;24.93;10.90;;;;;;;2.61;80.02;97512.50;5079366;28;20546;-85
2021/03/01 03:14:33;;;;;;;22.03;8.97;;;;;;;2.62;79.48;97513.97;5080020;28;20493;-85
2021/03/01 03:17:00;;;;;;;18.90;9.50;;;;;;;2.66;78.75;97517.19;5079753;28;20486;-85
2021/03/01 03:19:27;;;;;;;15.20;9.90;;;;;;;2.66;78.53;97507.25;5079090;28;20532;-86
2021/03/01 03:21:53;;;;;;;14.90;8.97;;;;;;;2.66;78.19;97511.88;5078796;28;20540;-85
2021/03/01 03:24:19;;;;;;;17.50;8.90;;;;;;;2.68;78.24;97514.78;5079161;28;20481;-86
2021/03/01 03:26:45;;;;;;;13.87;8.47;;;;;;;2.69;77.79;97514.31;5079125;28;20463;-86
2021/03/01 03:29:12;;;;;;;14.37;8.80;;;;;;;2.69;78.41;97503.66;5078791;28;20446;-86
2021/03/01 03:31:39;;;;;;;15.73;9.07;;;;;;;2.70;77.67;97510.47;5079273;28;20445;-85
2021/03/01 03:34:05;;;;;;;12.30;7.53;;;;;;;2.68;77.75;97509.47;5078851;28;20453;-86
2021/03/01 03:36:38;;;;;;;13.27;8.60;;;;;;;2.70;77.84;97515.06;5078881;28;20437;-85
2021/03/01 03:39:08;;;;;;;13.90;7.83;;;;;;;2.68;77.79;97514.78;5079239;28;20445;-86
2021/03/01 03:41:36;;;;;;;16.10;10.33;;;;;;;2.65;77.67;97515.72;5078778;28;20448;-85
2021/03/01 03:44:04;;;;;;;13.10;9.07;;;;;;;2.63;77.82;97515.44;5078979;28;20469;-85
2021/03/01 03:46:31;;;;;;;20.07;10.90;;;;;;;2.61;77.86;97513.22;5078231;28;20494;-85
2021/03/01 03:49:00;;;;;;;13.17;8.20;;;;;;;2.59;77.79;97509.56;5079076;28;20433;-86
2021/03/01 03:51:30;;;;;;;13.20;7.80;;;;;;;2.56;78.01;97508.53;5079111;28;20543;-86
2021/03/01 03:54:00;;;;;;;13.47;8.60;;;;;;;2.54;77.80;97510.91;5079165;28;20469;-86
2021/03/01 03:56:28;;;;;;;10.67;8.30;;;;;;;2.48;77.97;97512.00;5080234;28;20448;-86
2021/03/01 03:58:57;;;;;;;13.43;8.40;;;;;;;2.42;78.41;97506.59;5078634;28;20985;-86
2021/03/01 04:01:25;;;;;;;13.40;8.93;;;;;;;2.40;78.54;97501.00;5084182;28;20472;-86
2021/03/01 04:03:54;;;;;;;12.93;8.20;;;;;;;2.39;78.76;97502.16;5094777;28;20498;-86
2021/03/01 04:06:22;;;;;;;16.03;9.23;;;;;;;2.39;78.56;97498.78;5095957;28;20448;-85
2021/03/01 04:08:51;;;;;;;12.37;8.03;;;;;;;2.40;78.53;97501.00;5096205;28;20466;-86
2021/03/01 04:11:20;;;;;;;12.60;8.67;;;;;;;2.45;78.67;97502.25;5085489;28;20471;-85
2021/03/01 04:13:47;;;;;;;13.40;8.60;;;;;;;2.46;78.44;97503.75;5080672;28;20483;-85
2021/03/01 04:16:15;;;;;;;16.10;9.93;;;;;;;2.46;78.18;97490.44;5079463;28;20452;-85
2021/03/01 04:18:43;;;;;;;13.37;8.00;;;;;;;2.43;78.40;97502.00;5078658;28;20502;-85
2021/03/01 04:21:12;;;;;;;14.57;9.60;;;;;;;2.42;78.38;97503.19;5079889;28;20490;-87
2021/03/01 04:23:42;;;;;;;16.40;8.70;;;;;;;2.39;78.52;97501.44;5078673;28;20453;-86
2021/03/01 04:26:08;;;;;;;15.37;9.20;;;;;;;2.39;78.33;97502.16;5079125;28;20955;-85
2021/03/01 04:28:35;;;;;;;14.13;8.27;;;;;;;2.37;78.67;97499.25;5078585;28;20441;-87
2021/03/01 04:31:04;;;;;;;15.60;8.73;;;;;;;2.34;78.92;97497.50;5078867;28;20530;-87
2021/03/01 04:33:32;;;;;;;15.63;9.23;;;;;;;2.35;79.00;97500.91;5078179;28;20450;-87
2021/03/01 04:35:59;;;;;;;15.13;8.27;;;;;;;2.30;78.98;97501.50;5078412;28;20473;-87
2021/03/01 04:38:26;;;;;;;13.77;7.73;;;;;;;2.22;79.04;97500.41;5079016;28;20437;-85
2021/03/01 04:40:53;;;;;;;13.70;8.40;;;;;;;2.20;79.43;97500.09;5078453;28;20418;-85
2021/03/01 04:43:22;;;;;;;18.43;8.60;;;;;;;2.22;79.15;97500.41;5078472;28;20457;-87
2021/03/01 04:45:50;;;;;;;16.27;9.13;;;;;;;2.19;79.43;97503.97;5077896;28;20492;-87
2021/03/01 04:48:17;;;;;;;16.20;9.50;;;;;;;2.04;79.93;97501.25;5077901;28;20469;-87
2021/03/01 04:50:48;;;;;;;29.73;9.23;;;;;;;2.12;80.10;97505.78;5078126;28;20449;-85
2021/03/01 04:53:15;;;;;;;18.33;10.30;;;;;;;2.12;80.25;97503.13;5078304;28;20465;-85
2021/03/01 04:55:42;;;;;;;16.17;9.93;;;;;;;2.15;79.94;97496.16;5078081;28;20886;-85
2021/03/01 04:58:10;;;;;;;14.97;9.17;;;;;;;2.20;79.72;97505.44;5077556;28;20430;-86
2021/03/01 05:00:36;;;;;;;15.80;8.97;;;;;;;2.19;80.08;97496.72;5077427;28;20445;-86
2021/03/01 05:03:04;;;;;;;18.47;8.60;;;;;;;2.21;80.45;97506.91;5077621;28;20504;-85
2021/03/01 05:05:31;;;;;;;16.77;9.90;;;;;;;2.20;80.16;97506.16;5077613;28;20512;-85
2021/03/01 05:07:58;;;;;;;18.37;9.63;;;;;;;2.15;80.66;97510.22;5077265;28;20807;-85
2021/03/01 05:10:26;;;;;;;18.40;9.57;;;;;;;2.10;80.32;97510.81;5092425;28;20461;-84
2021/03/01 05:12:53;;;;;;;18.10;9.77;;;;;;;2.14;80.69;97506.06;5099906;28;20441;-86
2021/03/01 05:15:20;;;;;;;19.20;8.93;;;;;;;2.08;80.48;97505.22;5086702;28;20441;-87
2021/03/01 05:17:46;;;;;;;15.07;9.20;;;;;;;2.08;80.88;97512.47;5077837;28;20437;-85
2021/03/01 05:20:13;;;;;;;17.70;10.40;;;;;;;2.10;81.00;97510.81;5077628;28;20437;-84
2021/03/01 05:22:39;;;;;;;17.43;10.77;;;;;;;2.07;80.96;97516.31;5077073;28;20454;-84
2021/03/01 05:25:07;;;;;;;17.30;10.17;;;;;;;2.10;80.88;97508.16;5076897;28;20977;-83
2021/03/01 05:27:33;;;;;;;20.83;11.47;;;;;;;2.13;81.03;97515.22;5076028;28;20444;-85
2021/03/01 05:30:00;;;;;;;14.80;9.57;;;;;;;2.11;82.00;97514.97;5076698;28;21062;-84
2021/03/01 05:32:27;;;;;;;17.37;9.80;;;;;;;2.13;81.96;97517.91;5077403;28;20461;-84
2021/03/01 05:34:53;;;;;;;16.90;10.20;;;;;;;2.14;82.01;97515.97;5077587;28;20842;-85
2021/03/01 05:37:20;;;;;;;22.33;11.43;;;;;;;2.14;81.83;97515.97;5077372;28;20445;-85
2021/03/01 05:39:46;;;;;;;17.93;11.20;;;;;;;2.16;81.96;97513.63;5076923;28;20480;-85
2021/03/01 05:42:12;;;;;;;20.67;11.07;;;;;;;2.14;82.01;97511.41;5077277;28;20469;-84
2021/03/01 05:44:41;;;;;;;19.03;10.73;;;;;;;2.10;82.40;97513.47;5076970;28;20528;-85
2021/03/01 05:47:09;;;;;;;16.23;10.67;;;;;;;2.08;82.26;97521.19;5077988;28;20437;-85
2021/03/01 05:49:38;;;;;;;23.80;10.37;;;;;;;2.12;82.05;97516.44;5076829;28;20480;-85
2021/03/01 05:52:05;;;;;;;20.03;10.33;;;;;;;2.16;82.21;97519.66;5078047;28;20465;-85
2021/03/01 05:54:34;;;;;;;18.73;9.73;;;;;;;2.24;81.68;97512.06;5076891;28;20446;-85
2021/03/01 05:57:00;;;;;;;17.60;10.40;;;;;;;2.28;81.50;97511.88;5076253;28;20487;-85
2021/03/01 05:59:27;;;;;;;19.77;10.50;;;;;;;2.31;81.67;97503.00;5077567;28;20450;-86
2021/03/01 06:01:55;;;;;;;13.53;9.43;;;;;;;2.42;81.19;97513.84;5075783;28;20926;-86
2021/03/01 06:04:21;;;;;;;16.73;9.70;;;;;;;2.40;80.75;97516.22;5076425;28;20525;-85
2021/03/01 06:06:48;;;;;;;18.10;10.20;;;;;;;2.39;81.49;97520.81;5077769;28;20536;-88
2021/03/01 06:09:14;;;;;;;18.40;10.07;;;;;;;2.45;81.31;97523.56;5076697;28;20475;-87
2021/03/01 06:11:40;;;;;;;18.90;9.50;;;;;;;2.61;80.83;97525.81;5077332;28;20909;-87
2021/03/01 06:14:06;;;;;;;19.47;9.87;;;;;;;2.83;80.09;97536.13;5077487;28;20433;-87
2021/03/01 06:16:33;;;;;;;19.73;10.90;;;;;;;3.06;79.66;97529.97;5077659;28;20449;-87
2021/03/01 06:18:59;;;;;;;20.33;10.60;;;;;;;3.46;78.65;97532.03;5079707;28;20424;-86
2021/03/01 06:21:27;;;;;;;16.50;10.80;;;;;;;3.69;76.74;97539.16;5078390;28;20536;-86
2021/03/01 06:23:56;;;;;;;18.17;11.03;;;;;;;4.01;75.39;97548.06;5076795;28;20458;-86
2021/03/01 06:26:24;;;;;;;20.83;11.10;;;;;;;4.40;74.51;97543.91;5077942;28;20431;-85
2021/03/01 06:28:52;;;;;;;16.87;9.87;;;;;;;4.76;72.51;97540.66;5077371;28;20441;-87
2021/03/01 06:31:36;;;;;;;18.30;10.13;;;;;;;4.91;70.93;97545.16;5080953;28;20420;-86
2021/03/01 06:34:26;;;;;;;15.97;10.53;;;;;;;5.35;69.58;97551.63;5078466;28;20443;-86
2021/03/01 06:37:04;;;;;;;16.00;9.60;;;;;;;5.42;67.91;97552.41;5079490;28;20440;-85
2021/03/01 06:39:33;;;;;;;15.07;10.83;;;;;;;5.38;67.72;97545.31;5085151;28;20436;-86
2021/03/01 06:42:27;;;;;;;16.27;10.20;;;;;;;5.46;68.48;97544.88;5093077;28;20445;-86
2021/03/01 06:45:14;;;;;;;17.90;10.23;;;;;;;5.79;67.15;97551.19;5104770;28;20468;-87
2021/03/01 06:47:49;;;;;;;16.40;10.00;;;;;;;6.18;66.65;97551.41;5104516;28;20472;-87
2021/03/01 06:50:31;;;;;;;16.20;9.30;;;;;;;6.55;65.03;97556.66;5094131;28;20907;-86
2021/03/01 06:52:59;;;;;;;21.13;11.33;;;;;;;6.94;63.95;97554.06;5083418;28;20451;-86
2021/03/01 06:55:27;;;;;;;16.80;9.00;;;;;;;7.25;61.98;97563.84;5085990;28;20433;-85
2021/03/01 06:57:53;;;;;;;15.67;9.80;;;;;;;7.42;61.33;97561.91;5084119;28;20841;-86
2021/03/01 07:00:24;;;;;;;15.37;9.60;;;;;;;7.53;60.88;97567.25;5084435;28;20499;-87
2021/03/01 07:02:50;;;;;;;15.00;9.90;;;;;;;7.95;59.92;97574.28;5093875;28;20453;-87
2021/03/01 07:05:16;;;;;;;17.97;11.20;;;;;;;7.70;59.41;97561.88;5102819;28;20444;-88
2021/03/01 07:08:00;;;;;;;18.30;11.97;;;;;;;8.03;59.52;97564.50;5103126;28;20422;-88
2021/03/01 07:10:36;;;;;;;16.60;9.43;;;;;;;8.21;58.73;97573.97;5103351;28;20452;-87
2021/03/01 07:13:02;;;;;;;16.50;11.07;;;;;;;8.17;58.42;97574.25;5088438;28;20543;-87
2021/03/01 07:15:29;;;;;;;17.93;10.30;;;;;;;8.20;57.91;97569.81;5085428;28;20851;-91
2021/03/01 07:17:57;;;;;;;14.63;9.80;;;;;;;8.05;58.46;97576.22;5085448;28;20433;-91
2021/03/01 07:20:23;;;;;;;17.97;10.53;;;;;;;7.81;58.58;97580.66;5085049;28;20408;-91
2021/03/01 07:22:50;;;;;;;13.37;9.87;;;;;;;8.01;58.11;97580.38;5084102;28;20834;-91
2021/03/01 07:25:16;;;;;;;14.70;9.37;;;;;;;7.87;58.64;97576.00;5087012;28;20477;-90
2021/03/01 07:27:45;;;;;;;16.33;10.50;;;;;;;7.79;58.53;97580.44;5087605;28;20426;-91
2021/03/01 07:30:13;;;;;;;20.57;10.53;;;;;;;8.01;58.53;97583.81;5086636;28;20432;-91
2021/03/01 07:32:40;;;;;;;16.47;10.00;;;;;;;7.81;58.74;97575.28;5086552;28;20472;-91
2021/03/01 07:35:09;;;;;;;18.63;11.00;;;;;;;7.49;59.63;97575.56;5087414;28;20492;-91
2021/03/01 07:37:36;;;;;;;16.33;10.40;;;;;;;7.65;59.06;97579.47;5089026;28;20424;-91
2021/03/01 07:40:03;;;;;;;17.17;10.67;;;;;;;7.83;59.59;97589.69;5090327;28;20422;-91
2021/03/01 07:42:33;;;;;;;17.87;10.50;;;;;;;7.91;59.55;97584.56;5092681;28;20450;-90
2021/03/01 07:45:02;;;;;;;18.10;11.73;;;;;;;8.12;58.49;97574.97;5095329;28;20454;-91
2021/03/01 07:47:30;;;;;;;13.83;10.00;;;;;;;8.16;57.68;97578.16;5097040;28;20400;-92
2021/03/01 07:49:56;;;;;;;16.50;10.37;;;;;;;8.12;58.98;97582.31;5092734;28;20441;-90
2021/03/01 07:52:39;;;;;;;15.27;10.00;;;;;;;8.33;57.46;97580.81;5088246;28;20542;-90
2021/03/01 07:55:11;;;;;;;15.27;10.50;;;;;;;8.14;57.87;97582.56;5088246;28;20412;-93
2021/03/01 07:58:26;;;;;;;16.43;9.07;;;;;;;7.93;59.22;97579.41;5089448;28;20431;-94
2021/03/01 08:01:14;;;;;;;15.87;10.33;;;;;;;7.78;58.98;97582.38;5043886;28;20444;-92
2021/03/01 08:16:32;;;;;;;15.20;10.03;;;;;;;7.70;59.25;97586.06;5059658;28;20474;-91
2021/03/01 08:18:59;;;;;;;11.13;8.50;;;;;;;7.43;59.73;97579.47;5063023;28;20540;-92
2021/03/01 08:21:26;;;;;;;15.27;9.57;;;;;;;7.50;59.64;97576.31;5062819;28;20425;-92
2021/03/01 08:23:52;;;;;;;14.33;9.37;;;;;;;7.17;61.12;97578.97;5064975;28;20461;-91
2021/03/01 08:26:29;;;;;;;17.63;9.33;;;;;;;6.81;62.84;97584.03;5064606;28;20486;-93
2021/03/01 08:28:58;;;;;;;15.10;8.70;;;;;;;6.42;63.14;97573.19;5074126;28;20451;-93
2021/03/01 08:31:30;;;;;;;14.70;9.00;;;;;;;6.18;64.46;97580.88;5077353;28;20431;-95
2021/03/01 08:34:31;;;;;;;15.70;8.40;;;;;;;6.09;64.82;97578.41;5070024;28;20470;-92
2021/03/01 08:43:02;;;;;;;11.70;8.77;;;;;;;6.11;64.05;97586.69;5077923;28;20441;-92
2021/03/01 08:45:44;;;;;;;11.90;8.43;;;;;;;5.84;66.29;97584.56;5066520;28;20493;-91
2021/03/01 08:48:18;;;;;;;14.93;9.60;;;;;;;5.90;65.41;97585.34;5067177;28;20919;-93
2021/03/01 08:50:46;;;;;;;15.07;8.67;;;;;;;6.02;65.28;97584.22;5067437;28;20416;-94
2021/03/01 08:53:19;;;;;;;19.80;9.10;;;;;;;6.10;64.66;97579.13;5068394;28;20445;-94
2021/03/01 08:55:45;;;;;;;22.43;10.20;;;;;;;6.27;63.94;97580.69;5070601;28;20411;-92
2021/03/01 08:58:13;;;;;;;19.80;10.27;;;;;;;6.31;64.01;97583.88;5063080;28;20507;-89
2021/03/01 09:00:49;;;;;;;19.97;10.53;;;;;;;6.02;65.19;97580.78;5060347;28;20465;-88
2021/03/01 09:03:18;;;;;;;18.87;11.33;;;;;;;6.07;65.29;97577.44;5061830;28;20460;-91
2021/03/01 09:05:46;;;;;;;14.37;9.37;;;;;;;6.24;64.96;97578.22;5064103;28;20558;-93
2021/03/01 09:08:13;;;;;;;14.73;9.87;;;;;;;6.43;64.17;97580.03;5066500;28;20469;-92
2021/03/01 09:10:42;;;;;;;15.80;9.90;;;;;;;6.29;63.93;97575.59;5066640;28;20570;-90
2021/03/01 09:13:10;;;;;;;16.30;8.97;;;;;;;6.42;63.54;97573.19;5063963;28;20458;-92
2021/03/01 09:15:37;;;;;;;15.27;9.17;;;;;;;6.38;64.43;97569.28;5065035;28;20446;-93
2021/03/01 09:18:06;;;;;;;14.60;9.97;;;;;;;6.45;63.18;97569.53;5067854;28;20477;-93
2021/03/01 09:20:51;;;;;;;14.83;8.30;;;;;;;6.55;63.11;97575.41;5064200;28;20434;-92
2021/03/01 09:23:42;;;;;;;15.20;9.00;;;;;;;6.62;61.69;97568.88;5065161;28;20520;-92
2021/03/01 09:26:17;;;;;;;10.37;7.40;;;;;;;6.63;61.74;97579.13;5064369;28;20496;-91
2021/03/01 09:28:44;;;;;;;16.30;8.87;;;;;;;6.62;62.31;97566.19;5062796;28;20439;-89
2021/03/01 09:31:13;;;;;;;14.07;9.73;;;;;;;6.98;61.63;97576.03;5062916;28;20434;-90
2021/03/01 09:33:41;;;;;;;15.37;8.07;;;;;;;6.76;60.28;97571.34;5065127;28;20856;-89
2021/03/01 09:36:16;;;;;;;14.93;9.43;;;;;;;6.78;61.10;97573.53;5067505;28;20513;-90
2021/03/01 09:38:50;;;;;;;12.10;8.33;;;;;;;6.96;60.41;97573.09;5067046;28;20445;-90
2021/03/01 09:41:17;;;;;;;13.60;8.57;;;;;;;7.04;60.40;97562.63;5066009;28;20856;-91
2021/03/01 09:43:44;;;;;;;13.00;8.50;;;;;;;7.33;59.38;97570.91;5067844;28;20439;-90
2021/03/01 09:48:59;;;;;;;14.10;9.00;;;;;;;7.48;57.42;97568.75;5068881;28;20442;-93
2021/03/01 09:51:28;;;;;;;15.17;7.80;;;;;;;7.70;56.21;97576.06;5064933;28;20517;-90
2021/03/01 09:53:58;;;;;;;11.77;7.97;;;;;;;7.80;57.01;97573.84;5062552;28;20437;-90
2021/03/01 09:56:39;;;;;;;12.77;8.60;;;;;;;8.08;56.76;97569.13;5061628;28;20431;-92
2021/03/01 09:59:06;;;;;;;12.30;7.93;;;;;;;8.19;56.38;97563.72;5063215;28;20412;-91
2021/03/01 10:01:32;;;;;;;13.90;8.87;;;;;;;8.40;55.24;97564.88;5065557;28;20397;-91
2021/03/01 10:03:59;;;;;;;16.27;8.23;;;;;;;8.53;55.51;97567.03;5078443;28;20477;-93
2021/03/01 10:06:31;;;;;;;23.20;11.03;;;;;;;8.84;54.17;97571.28;5078060;28;20482;-91
2021/03/01 10:09:03;;;;;;;15.57;8.37;;;;;;;8.57;54.09;97575.56;5077668;28;20427;-88
2021/03/01 10:11:30;;;;;;;17.33;8.67;;;;;;;8.65;53.87;97565.00;5072324;28;20401;-90
2021/03/01 10:14:02;;;;;;;13.23;8.23;;;;;;;8.65;52.80;97567.69;5062552;28;20784;-88
2021/03/01 10:16:29;;;;;;;16.10;8.00;;;;;;;8.58;51.47;97564.31;5065098;28;20488;-92
2021/03/01 10:18:56;;;;;;;14.20;7.80;;;;;;;8.78;51.41;97562.50;5065206;28;20443;-91
2021/03/01 10:21:32;;;;;;;11.73;7.67;;;;;;;8.58;51.23;97561.63;5069408;28;20949;-91
2021/03/01 10:24:01;;;;;;;16.17;8.37;;;;;;;8.61;51.74;97557.22;5066056;28;20442;-91
2021/03/01 10:26:31;;;;;;;21.63;8.87;;;;;;;8.62;50.71;97569.44;5072378;28;20493;-93
2021/03/01 10:29:02;;;;;;;11.57;8.23;;;;;;;8.78;51.01;97562.50;5075825;28;20463;-93
2021/03/01 10:31:33;;;;;;;14.80;8.40;;;;;;;8.91;50.47;97557.28;5075373;28;20501;-93
2021/03/01 10:34:02;;;;;;;16.30;7.70;;;;;;;8.96;49.61;97549.16;5077130;28;20450;-95
2021/03/01 10:36:53;;;;;;;9.03;7.13;;;;;;;9.08;48.26;97555.94;5077197;28;20461;-95
2021/03/01 11:03:18;;;;;;;8.53;6.13;;;;;;;10.01;41.85;97546.81;5062492;28;20463;-92
2021/03/01 11:05:46;;;;;;;7.10;5.10;;;;;;;10.03;39.45;97547.75;5062476;28;20456;-88
2021/03/01 11:08:12;;;;;;;7.20;4.83;;;;;;;10.08;38.91;97538.16;5063653;28;20421;-88
2021/03/01 11:10:39;;;;;;;7.43;5.20;;;;;;;10.12;38.21;97533.19;5060890;28;20464;-87
2021/03/01 11:13:06;;;;;;;9.27;5.30;;;;;;;10.42;38.21;97544.66;5062334;28;20490;-94
2021/03/01 11:15:35;;;;;;;6.77;4.53;;;;;;;10.40;36.18;97551.78;5070266;28;20523;-94
2021/03/01 11:18:02;;;;;;;6.40;4.83;;;;;;;10.43;35.67;97559.56;5065922;28;20451;-92
2021/03/01 11:20:29;;;;;;;10.10;4.60;;;;;;;10.51;36.12;97548.94;5067893;28;20442;-92
2021/03/01 11:23:35;;;;;;;7.67;4.93;;;;;;;10.49;36.19;97543.34;5073290;28;20437;-93
2021/03/01 11:26:03;;;;;;;7.87;4.67;;;;;;;10.53;35.30;97536.41;5078320;28;20459;-94
2021/03/01 11:28:31;;;;;;;6.07;4.73;;;;;;;10.58;35.36;97538.31;5075914;28;20429;-94
2021/03/01 11:31:05;;;;;;;8.47;4.90;;;;;;;10.73;34.08;97538.59;5073050;28;20466;-93
2021/03/01 11:33:31;;;;;;;6.60;4.50;;;;;;;10.71;33.99;97526.84;5074713;28;20490;-94
2021/03/01 11:35:58;;;;;;;7.53;5.23;;;;;;;10.86;33.63;97531.78;5069536;28;20924;-91
2021/03/01 11:38:25;;;;;;;7.53;4.50;;;;;;;10.82;33.78;97521.28;5068937;28;20500;-90
2021/03/01 11:40:52;;;;;;;8.00;4.57;;;;;;;10.95;33.25;97523.31;5070008;28;20433;-90
2021/03/01 11:43:20;;;;;;;6.57;4.13;;;;;;;10.84;33.59;97523.47;5073975;28;20472;-91
2021/03/01 11:45:47;;;;;;;7.83;3.90;;;;;;;10.95;33.76;97517.91;5070661;28;20814;-91
2021/03/01 11:48:25;;;;;;;7.63;4.90;;;;;;;11.25;34.01;97513.75;5071124;28;20450;-92
2021/03/01 11:50:54;;;;;;;7.20;4.37;;;;;;;11.45;34.09;97515.16;5073419;28;20420;-94
2021/03/01 11:53:21;;;;;;;7.20;4.13;;;;;;;11.49;33.81;97507.47;5073298;28;20449;-93
2021/03/01 11:55:48;;;;;;;5.10;3.90;;;;;;;11.57;33.44;97504.88;5071349;28;20505;-93
2021/03/01 11:58:14;;;;;;;7.60;3.47;;;;;;;11.54;33.47;97495.81;5068504;28;20406;-90
2021/03/01 12:00:42;;;;;;;7.20;4.27;;;;;;;11.58;34.61;97496.25;5066122;28;20507;-90
2021/03/01 12:03:10;;;;;;;6.73;4.77;;;;;;;11.79;33.98;97497.13;5076414;28;20425;-90
2021/03/01 12:05:37;;;;;;;7.13;4.80;;;;;;;11.86;33.71;97490.34;5068608;28;20577;-90
2021/03/01 12:08:04;;;;;;;7.60;4.20;;;;;;;12.00;33.79;97497.19;5065304;28;20417;-90
2021/03/01 12:10:30;;;;;;;6.30;4.23;;;;;;;11.78;33.76;97490.25;5064999;28;20533;-89
2021/03/01 12:12:56;;;;;;;11.10;4.20;;;;;;;11.75;34.71;97477.75;5063449;28;20453;-90
2021/03/01 12:15:22;;;;;;;6.70;3.83;;;;;;;11.91;34.92;97488.78;5066011;28;20462;-90
2021/03/01 12:17:50;;;;;;;8.30;4.10;;;;;;;12.03;35.30;97490.03;5063431;28;20417;-90
2021/03/01 12:20:16;;;;;;;7.73;4.00;;;;;;;12.18;34.92;97480.13;5062677;28;20443;-90
2021/03/01 12:22:42;;;;;;;5.57;4.07;;;;;;;12.09;34.60;97483.25;5063286;28;20429;-89
2021/03/01 12:25:10;;;;;;;4.43;3.00;;;;;;;12.30;35.57;97477.91;5062000;28;20453;-90